sensor_id;sensor_type;location;lat;lon;timestamp;pressure;altitude;pressure_sealevel;temperature;humidity
34586;BME280;20816;50.950;11.108;2023-07-22T00:00:38;98207.47;;;14.74;100.00
34586;BME280;20816;50.950;11.108;2023-07-22T00:03:05;98208.34;;;14.75;100.00
34586;BME280;20816;50.950;11.108;2023-07-22T00:05:32;98202.03;;;14.77;100.00
34586;BME280;20816;50.950;11.108;2023-07-22T00:07:59;98205.81;;;14.72;100.00
34586;BME280;20816;50.950;11.108;2023-07-22T00:10:26;98206.88;;;14.68;100.00
34586;BME280;20816;50.950;11.108;2023-07-22T00:12:52;98211.44;;;14.64;100.00
34586;BME280;20816;50.950;11.108;2023-07-22T00:15:19;98210.31;;;14.70;100.00
34586;BME280;20816;50.950;11.108;2023-07-22T00:17:48;98202.47;;;14.68;100.00
34586;BME280;20816;50.950;11.108;2023-07-22T00:20:15;98209.59;;;14.66;100.00
34586;BME280;20816;50.950;11.108;2023-07-22T00:22:42;98208.16;;;14.59;100.00
34586;BME280;20816;50.950;11.108;2023-07-22T00:25:10;98201.53;;;14.49;100.00
34586;BME280;20816;50.950;11.108;2023-07-22T00:27:38;98209.06;;;14.38;100.00
34586;BME280;20816;50.950;11.108;2023-07-22T00:30:06;98208.72;;;14.25;100.00
34586;BME280;20816;50.950;11.108;2023-07-22T00:32:33;98207.47;;;14.13;100.00
34586;BME280;20816;50.950;11.108;2023-07-22T00:35:00;98213.81;;;14.09;100.00
34586;BME280;20816;50.950;11.108;2023-07-22T00:37:27;98210.97;;;14.14;100.00
34586;BME280;20816;50.950;11.108;2023-07-22T00:39:54;98220.69;;;14.13;100.00
34586;BME280;20816;50.950;11.108;2023-07-22T00:42:21;98212.22;;;14.05;100.00
34586;BME280;20816;50.950;11.108;2023-07-22T00:44:48;98221.94;;;14.05;100.00
34586;BME280;20816;50.950;11.108;2023-07-22T00:47:15;98222.53;;;14.11;100.00
34586;BME280;20816;50.950;11.108;2023-07-22T00:49:43;98220.81;;;14.10;100.00
34586;BME280;20816;50.950;11.108;2023-07-22T00:52:10;98227.03;;;14.09;100.00
34586;BME280;20816;50.950;11.108;2023-07-22T00:54:36;98222.41;;;14.14;100.00
34586;BME280;20816;50.950;11.108;2023-07-22T00:57:03;98224.09;;;14.15;100.00
34586;BME280;20816;50.950;11.108;2023-07-22T00:59:30;98225.56;;;14.22;100.00
34586;BME280;20816;50.950;11.108;2023-07-22T01:01:57;98228.09;;;14.25;100.00
34586;BME280;20816;50.950;11.108;2023-07-22T01:04:24;98221.75;;;14.29;100.00
34586;BME280;20816;50.950;11.108;2023-07-22T01:06:51;98221.50;;;14.36;100.00
34586;BME280;20816;50.950;11.108;2023-07-22T01:09:21;98215.34;;;14.35;100.00
34586;BME280;20816;50.950;11.108;2023-07-22T01:11:48;98224.78;;;14.41;100.00
34586;BME280;20816;50.950;11.108;2023-07-22T01:14:15;98219.63;;;14.38;100.00
34586;BME280;20816;50.950;11.108;2023-07-22T01:16:42;98225.25;;;14.30;100.00
34586;BME280;20816;50.950;11.108;2023-07-22T01:19:10;98215.78;;;14.24;100.00
34586;BME280;20816;50.950;11.108;2023-07-22T01:21:38;98219.16;;;14.28;100.00
34586;BME280;20816;50.950;11.108;2023-07-22T01:24:06;98226.25;;;14.27;100.00
34586;BME280;20816;50.950;11.108;2023-07-22T01:26:33;98231.66;;;14.45;100.00
34586;BME280;20816;50.950;11.108;2023-07-22T01:29:04;98228.06;;;14.47;100.00
34586;BME280;20816;50.950;11.108;2023-07-22T01:31:34;98237.69;;;14.48;100.00
34586;BME280;20816;50.950;11.108;2023-07-22T01:34:02;98240.84;;;14.58;100.00
34586;BME280;20816;50.950;11.108;2023-07-22T01:36:30;98236.41;;;14.58;100.00
34586;BME280;20816;50.950;11.108;2023-07-22T01:38:57;98240.69;;;14.61;100.00
34586;BME280;20816;50.950;11.108;2023-07-22T01:41:24;98236.44;;;14.57;100.00
34586;BME280;20816;50.950;11.108;2023-07-22T01:43:50;98239.41;;;14.49;100.00
34586;BME280;20816;50.950;11.108;2023-07-22T01:46:17;98243.72;;;14.52;100.00
34586;BME280;20816;50.950;11.108;2023-07-22T01:48:44;98242.13;;;14.48;100.00
34586;BME280;20816;50.950;11.108;2023-07-22T01:51:11;98245.88;;;14.42;100.00
34586;BME280;20816;50.950;11.108;2023-07-22T01:53:37;98239.22;;;14.34;100.00
34586;BME280;20816;50.950;11.108;2023-07-22T01:56:04;98246.31;;;14.31;100.00
34586;BME280;20816;50.950;11.108;2023-07-22T01:58:32;98241.44;;;14.22;100.00
34586;BME280;20816;50.950;11.108;2023-07-22T02:00:59;98248.81;;;14.14;100.00
34586;BME280;20816;50.950;11.108;2023-07-22T02:03:26;98254.31;;;14.10;100.00
34586;BME280;20816;50.950;11.108;2023-07-22T02:05:53;98257.13;;;14.05;100.00
34586;BME280;20816;50.950;11.108;2023-07-22T02:08:20;98251.25;;;13.98;100.00
34586;BME280;20816;50.950;11.108;2023-07-22T02:10:47;98254.75;;;13.99;100.00
34586;BME280;20816;50.950;11.108;2023-07-22T02:13:14;98254.75;;;13.99;100.00
34586;BME280;20816;50.950;11.108;2023-07-22T02:15:41;98250.22;;;13.81;100.00
34586;BME280;20816;50.950;11.108;2023-07-22T02:18:08;98250.06;;;13.84;100.00
34586;BME280;20816;50.950;11.108;2023-07-22T02:20:35;98255.19;;;13.66;100.00
34586;BME280;20816;50.950;11.108;2023-07-22T02:23:01;98253.66;;;13.61;100.00
34586;BME280;20816;50.950;11.108;2023-07-22T02:25:28;98249.34;;;13.58;100.00
34586;BME280;20816;50.950;11.108;2023-07-22T02:27:55;98257.25;;;13.58;100.00
34586;BME280;20816;50.950;11.108;2023-07-22T02:30:22;98249.63;;;13.52;100.00
34586;BME280;20816;50.950;11.108;2023-07-22T02:32:48;98259.34;;;13.50;100.00
34586;BME280;20816;50.950;11.108;2023-07-22T02:35:15;98261.34;;;13.43;100.00
34586;BME280;20816;50.950;11.108;2023-07-22T02:37:42;98256.16;;;13.42;100.00
34586;BME280;20816;50.950;11.108;2023-07-22T02:40:09;98257.56;;;13.51;100.00
34586;BME280;20816;50.950;11.108;2023-07-22T02:42:39;98255.47;;;13.37;100.00
34586;BME280;20816;50.950;11.108;2023-07-22T02:45:06;98259.22;;;13.31;100.00
34586;BME280;20816;50.950;11.108;2023-07-22T02:47:36;98250.59;;;13.26;100.00
34586;BME280;20816;50.950;11.108;2023-07-22T02:50:03;98260.34;;;13.24;100.00
34586;BME280;20816;50.950;11.108;2023-07-22T02:52:31;98257.91;;;13.20;100.00
34586;BME280;20816;50.950;11.108;2023-07-22T02:57:33;98257.13;;;13.16;100.00
34586;BME280;20816;50.950;11.108;2023-07-22T03:00:01;98265.94;;;13.15;100.00
34586;BME280;20816;50.950;11.108;2023-07-22T03:02:31;98262.59;;;13.11;100.00
34586;BME280;20816;50.950;11.108;2023-07-22T03:04:58;98268.75;;;13.10;100.00
34586;BME280;20816;50.950;11.108;2023-07-22T03:07:25;98274.38;;;13.01;100.00
34586;BME280;20816;50.950;11.108;2023-07-22T03:09:53;98279.56;;;13.04;100.00
34586;BME280;20816;50.950;11.108;2023-07-22T03:12:20;98273.69;;;12.96;100.00
34586;BME280;20816;50.950;11.108;2023-07-22T03:14:47;98273.69;;;12.96;100.00
34586;BME280;20816;50.950;11.108;2023-07-22T03:17:17;98281.81;;;12.90;100.00
34586;BME280;20816;50.950;11.108;2023-07-22T03:19:44;98281.50;;;12.99;100.00
34586;BME280;20816;50.950;11.108;2023-07-22T03:22:15;98272.56;;;13.03;100.00
34586;BME280;20816;50.950;11.108;2023-07-22T03:24:43;98273.50;;;13.01;100.00
34586;BME280;20816;50.950;11.108;2023-07-22T03:27:11;98285.91;;;12.99;100.00
34586;BME280;20816;50.950;11.108;2023-07-22T03:29:38;98284.41;;;12.91;100.00
34586;BME280;20816;50.950;11.108;2023-07-22T03:32:05;98280.38;;;12.81;100.00
34586;BME280;20816;50.950;11.108;2023-07-22T03:34:32;98281.00;;;12.65;100.00
34586;BME280;20816;50.950;11.108;2023-07-22T03:36:59;98275.91;;;12.58;100.00
34586;BME280;20816;50.950;11.108;2023-07-22T03:39:26;98290.13;;;12.54;100.00
34586;BME280;20816;50.950;11.108;2023-07-22T03:41:53;98293.91;;;12.47;100.00
34586;BME280;20816;50.950;11.108;2023-07-22T03:44:20;98294.75;;;12.48;100.00
34586;BME280;20816;50.950;11.108;2023-07-22T03:46:46;98294.91;;;12.43;100.00
34586;BME280;20816;50.950;11.108;2023-07-22T03:49:13;98301.28;;;12.36;100.00
34586;BME280;20816;50.950;11.108;2023-07-22T03:51:39;98312.69;;;12.37;100.00
34586;BME280;20816;50.950;11.108;2023-07-22T03:54:06;98313.56;;;12.37;100.00
34586;BME280;20816;50.950;11.108;2023-07-22T03:56:33;98302.06;;;12.40;100.00
34586;BME280;20816;50.950;11.108;2023-07-22T03:59:00;98310.97;;;12.35;100.00
34586;BME280;20816;50.950;11.108;2023-07-22T04:01:27;98310.78;;;12.42;100.00
34586;BME280;20816;50.950;11.108;2023-07-22T04:03:53;98314.41;;;12.38;100.00
34586;BME280;20816;50.950;11.108;2023-07-22T04:06:20;98318.81;;;12.37;100.00
34586;BME280;20816;50.950;11.108;2023-07-22T04:08:47;98317.03;;;12.39;100.00
34586;BME280;20816;50.950;11.108;2023-07-22T04:11:13;98314.38;;;12.39;100.00
34586;BME280;20816;50.950;11.108;2023-07-22T04:13:40;98320.47;;;12.41;100.00
34586;BME280;20816;50.950;11.108;2023-07-22T04:16:07;98320.16;;;12.50;100.00
34586;BME280;20816;50.950;11.108;2023-07-22T04:18:34;98311.06;;;12.59;100.00
34586;BME280;20816;50.950;11.108;2023-07-22T04:21:01;98311.00;;;12.60;100.00
34586;BME280;20816;50.950;11.108;2023-07-22T04:23:28;98314.34;;;12.66;100.00
34586;BME280;20816;50.950;11.108;2023-07-22T04:25:55;98311.53;;;12.70;100.00
34586;BME280;20816;50.950;11.108;2023-07-22T04:28:22;98307.75;;;12.79;100.00
34586;BME280;20816;50.950;11.108;2023-07-22T04:30:56;98314.66;;;12.81;100.00
34586;BME280;20816;50.950;11.108;2023-07-22T04:33:25;98307.34;;;12.89;100.00
34586;BME280;20816;50.950;11.108;2023-07-22T04:35:57;98313.03;;;13.02;100.00
34586;BME280;20816;50.950;11.108;2023-07-22T04:38:24;98302.97;;;13.13;100.00
34586;BME280;20816;50.950;11.108;2023-07-22T04:40:50;98305.28;;;13.23;100.00
34586;BME280;20816;50.950;11.108;2023-07-22T04:43:17;98312.69;;;13.36;100.00
34586;BME280;20816;50.950;11.108;2023-07-22T04:45:48;98309.63;;;13.47;100.00
34586;BME280;20816;50.950;11.108;2023-07-22T04:48:20;98311.78;;;13.59;100.00
34586;BME280;20816;50.950;11.108;2023-07-22T04:50:46;98308.69;;;13.71;100.00
34586;BME280;20816;50.950;11.108;2023-07-22T04:53:13;98315.22;;;13.85;100.00
34586;BME280;20816;50.950;11.108;2023-07-22T04:55:40;98322.59;;;13.98;100.00
34586;BME280;20816;50.950;11.108;2023-07-22T04:58:08;98320.31;;;14.11;100.00
34586;BME280;20816;50.950;11.108;2023-07-22T05:00:37;98321.50;;;14.26;100.00
34586;BME280;20816;50.950;11.108;2023-07-22T05:03:04;98322.94;;;14.33;100.00
34586;BME280;20816;50.950;11.108;2023-07-22T05:05:32;98324.78;;;14.53;100.00
34586;BME280;20816;50.950;11.108;2023-07-22T05:07:59;98326.53;;;14.74;100.00
34586;BME280;20816;50.950;11.108;2023-07-22T05:10:25;98324.19;;;14.87;100.00
34586;BME280;20816;50.950;11.108;2023-07-22T05:12:52;98318.22;;;15.02;100.00
34586;BME280;20816;50.950;11.108;2023-07-22T05:15:19;98325.00;;;15.28;100.00
34586;BME280;20816;50.950;11.108;2023-07-22T05:17:47;98319.03;;;15.43;99.10
34586;BME280;20816;50.950;11.108;2023-07-22T05:20:14;98326.53;;;15.53;96.52
34586;BME280;20816;50.950;11.108;2023-07-22T05:22:41;98328.50;;;15.68;97.15
34586;BME280;20816;50.950;11.108;2023-07-22T05:25:08;98326.06;;;15.82;95.42
34586;BME280;20816;50.950;11.108;2023-07-22T05:27:36;98331.63;;;15.95;94.66
34586;BME280;20816;50.950;11.108;2023-07-22T05:30:03;98337.16;;;16.09;93.73
34586;BME280;20816;50.950;11.108;2023-07-22T05:32:36;98338.78;;;16.48;92.58
34586;BME280;20816;50.950;11.108;2023-07-22T05:35:03;98338.63;;;16.68;90.33
34586;BME280;20816;50.950;11.108;2023-07-22T05:37:31;98334.06;;;16.72;90.19
34586;BME280;20816;50.950;11.108;2023-07-22T05:39:59;98339.84;;;16.97;88.04
34586;BME280;20816;50.950;11.108;2023-07-22T05:42:26;98338.88;;;16.98;88.72
34586;BME280;20816;50.950;11.108;2023-07-22T05:44:54;98343.81;;;17.06;87.51
34586;BME280;20816;50.950;11.108;2023-07-22T05:47:21;98332.41;;;17.37;87.01
34586;BME280;20816;50.950;11.108;2023-07-22T05:49:48;98340.63;;;17.32;84.43
34586;BME280;20816;50.950;11.108;2023-07-22T05:52:15;98335.81;;;17.23;85.00
34586;BME280;20816;50.950;11.108;2023-07-22T05:54:41;98338.31;;;17.59;84.28
34586;BME280;20816;50.950;11.108;2023-07-22T05:57:08;98342.78;;;17.75;82.93
34586;BME280;20816;50.950;11.108;2023-07-22T05:59:35;98339.19;;;18.07;81.41
34586;BME280;20816;50.950;11.108;2023-07-22T06:02:07;98339.72;;;17.98;80.52
34586;BME280;20816;50.950;11.108;2023-07-22T06:04:34;98341.09;;;18.21;79.85
34586;BME280;20816;50.950;11.108;2023-07-22T06:07:00;98339.19;;;18.23;79.83
34586;BME280;20816;50.950;11.108;2023-07-22T06:09:27;98329.25;;;18.57;78.47
34586;BME280;20816;50.950;11.108;2023-07-22T06:11:53;98337.47;;;18.84;78.67
34586;BME280;20816;50.950;11.108;2023-07-22T06:14:20;98337.50;;;18.98;76.55
34586;BME280;20816;50.950;11.108;2023-07-22T06:16:47;98342.78;;;18.84;76.55
34586;BME280;20816;50.950;11.108;2023-07-22T06:19:14;98337.03;;;19.20;74.53
34586;BME280;20816;50.950;11.108;2023-07-22T06:21:41;98344.47;;;19.15;75.96
34586;BME280;20816;50.950;11.108;2023-07-22T06:24:07;98328.22;;;19.62;74.13
34586;BME280;20816;50.950;11.108;2023-07-22T06:26:34;98344.97;;;19.78;72.87
34586;BME280;20816;50.950;11.108;2023-07-22T06:29:01;98349.34;;;19.51;72.03
34586;BME280;20816;50.950;11.108;2023-07-22T06:31:28;98341.56;;;19.76;72.01
34586;BME280;20816;50.950;11.108;2023-07-22T06:33:57;98343.66;;;19.71;71.51
34586;BME280;20816;50.950;11.108;2023-07-22T06:36:26;98340.22;;;19.83;72.14
34586;BME280;20816;50.950;11.108;2023-07-22T06:38:54;98342.97;;;19.96;72.27
34586;BME280;20816;50.950;11.108;2023-07-22T06:41:21;98341.22;;;19.38;73.32
34586;BME280;20816;50.950;11.108;2023-07-22T06:43:50;98344.97;;;19.78;73.69
34586;BME280;20816;50.950;11.108;2023-07-22T06:46:17;98336.69;;;20.24;71.33
34586;BME280;20816;50.950;11.108;2023-07-22T06:48:44;98338.41;;;20.25;70.87
34586;BME280;20816;50.950;11.108;2023-07-22T06:51:11;98337.22;;;20.70;68.79
34586;BME280;20816;50.950;11.108;2023-07-22T06:53:38;98338.66;;;21.02;66.66
34586;BME280;20816;50.950;11.108;2023-07-22T06:56:05;98341.41;;;20.48;65.51
34586;BME280;20816;50.950;11.108;2023-07-22T06:58:31;98342.72;;;21.07;64.96
34586;BME280;20816;50.950;11.108;2023-07-22T07:00:58;98343.16;;;21.26;63.59
34586;BME280;20816;50.950;11.108;2023-07-22T07:03:24;98349.69;;;21.10;65.55
34586;BME280;20816;50.950;11.108;2023-07-22T07:05:53;98342.72;;;21.20;64.82
34586;BME280;20816;50.950;11.108;2023-07-22T07:08:21;98349.34;;;21.02;64.36
34586;BME280;20816;50.950;11.108;2023-07-22T07:10:48;98351.91;;;21.03;63.95
34586;BME280;20816;50.950;11.108;2023-07-22T07:13:15;98350.03;;;21.56;63.35
34586;BME280;20816;50.950;11.108;2023-07-22T07:15:46;98361.75;;;21.03;62.77
34586;BME280;20816;50.950;11.108;2023-07-22T07:18:14;98363.75;;;21.51;63.19
34586;BME280;20816;50.950;11.108;2023-07-22T07:20:41;98363.72;;;21.39;62.08
34586;BME280;20816;50.950;11.108;2023-07-22T07:23:08;98360.16;;;21.89;61.82
34586;BME280;20816;50.950;11.108;2023-07-22T07:25:35;98360.91;;;21.66;60.71
34586;BME280;20816;50.950;11.108;2023-07-22T07:28:03;98366.16;;;21.80;61.01
34586;BME280;20816;50.950;11.108;2023-07-22T07:30:31;98372.22;;;22.20;60.98
34586;BME280;20816;50.950;11.108;2023-07-22T07:32:58;98365.84;;;22.34;59.32
34586;BME280;20816;50.950;11.108;2023-07-22T07:35:25;98371.69;;;22.39;58.93
34586;BME280;20816;50.950;11.108;2023-07-22T07:37:52;98377.44;;;22.58;59.04
34586;BME280;20816;50.950;11.108;2023-07-22T07:40:19;98374.22;;;22.53;58.44
34586;BME280;20816;50.950;11.108;2023-07-22T07:42:45;98371.63;;;23.35;57.66
34586;BME280;20816;50.950;11.108;2023-07-22T07:45:12;98375.22;;;23.11;57.82
34586;BME280;20816;50.950;11.108;2023-07-22T07:47:39;98369.56;;;22.92;57.82
34586;BME280;20816;50.950;11.108;2023-07-22T07:50:06;98373.44;;;23.23;56.90
34586;BME280;20816;50.950;11.108;2023-07-22T07:52:33;98370.38;;;23.28;56.77
34586;BME280;20816;50.950;11.108;2023-07-22T07:55:00;98378.28;;;23.64;56.24
34586;BME280;20816;50.950;11.108;2023-07-22T07:57:26;98375.94;;;23.02;56.95
34586;BME280;20816;50.950;11.108;2023-07-22T07:59:53;98381.81;;;23.18;57.83
34586;BME280;20816;50.950;11.108;2023-07-22T08:02:20;98377.06;;;24.02;56.05
34586;BME280;20816;50.950;11.108;2023-07-22T08:04:46;98368.75;;;24.16;55.09
34586;BME280;20816;50.950;11.108;2023-07-22T08:07:16;98376.44;;;24.21;55.36
34586;BME280;20816;50.950;11.108;2023-07-22T08:09:43;98374.75;;;23.17;55.77
34586;BME280;20816;50.950;11.108;2023-07-22T08:12:09;98374.28;;;23.24;55.85
34586;BME280;20816;50.950;11.108;2023-07-22T08:14:36;98371.47;;;24.05;54.80
34586;BME280;20816;50.950;11.108;2023-07-22T08:17:03;98356.25;;;24.60;52.12
34586;BME280;20816;50.950;11.108;2023-07-22T08:19:30;98363.56;;;24.58;53.17
34586;BME280;20816;50.950;11.108;2023-07-22T08:21:57;98362.59;;;23.36;54.59
34586;BME280;20816;50.950;11.108;2023-07-22T08:24:23;98369.91;;;23.34;55.07
34586;BME280;20816;50.950;11.108;2023-07-22T08:26:50;98368.53;;;23.74;54.55
34586;BME280;20816;50.950;11.108;2023-07-22T08:29:17;98366.88;;;23.38;55.33
34586;BME280;20816;50.950;11.108;2023-07-22T08:31:43;98373.53;;;22.62;56.28
34586;BME280;20816;50.950;11.108;2023-07-22T08:34:10;98375.72;;;23.05;55.30
34586;BME280;20816;50.950;11.108;2023-07-22T08:36:37;98381.16;;;23.39;56.21
34586;BME280;20816;50.950;11.108;2023-07-22T08:39:04;98380.97;;;22.22;57.76
34586;BME280;20816;50.950;11.108;2023-07-22T08:41:31;98371.50;;;22.42;57.87
34586;BME280;20816;50.950;11.108;2023-07-22T08:43:59;98374.50;;;23.67;55.45
34586;BME280;20816;50.950;11.108;2023-07-22T08:46:30;98380.75;;;23.79;54.96
34586;BME280;20816;50.950;11.108;2023-07-22T08:49:00;98383.06;;;23.14;56.25
34586;BME280;20816;50.950;11.108;2023-07-22T08:51:27;98382.69;;;23.76;54.70
34586;BME280;20816;50.950;11.108;2023-07-22T08:53:55;98376.09;;;24.37;53.19
34586;BME280;20816;50.950;11.108;2023-07-22T08:56:37;98375.34;;;23.67;53.76
34586;BME280;20816;50.950;11.108;2023-07-22T08:59:05;98368.47;;;24.42;53.85
34586;BME280;20816;50.950;11.108;2023-07-22T09:01:33;98378.34;;;25.16;52.41
34586;BME280;20816;50.950;11.108;2023-07-22T09:04:03;98366.09;;;25.24;51.39
34586;BME280;20816;50.950;11.108;2023-07-22T09:06:30;98377.09;;;23.80;51.33
34586;BME280;20816;50.950;11.108;2023-07-22T09:08:58;98372.44;;;23.70;51.88
34586;BME280;20816;50.950;11.108;2023-07-22T09:11:25;98369.38;;;23.97;51.11
34586;BME280;20816;50.950;11.108;2023-07-22T09:13:53;98369.97;;;24.23;51.28
34586;BME280;20816;50.950;11.108;2023-07-22T09:16:21;98373.66;;;24.00;51.86
34586;BME280;20816;50.950;11.108;2023-07-22T09:18:48;98373.41;;;23.81;52.46
34586;BME280;20816;50.950;11.108;2023-07-22T09:21:15;98364.88;;;22.83;53.19
34586;BME280;20816;50.950;11.108;2023-07-22T09:23:42;98370.28;;;22.46;55.38
34586;BME280;20816;50.950;11.108;2023-07-22T09:26:14;98358.94;;;22.66;54.61
34586;BME280;20816;50.950;11.108;2023-07-22T09:28:49;98365.50;;;22.86;54.95
34586;BME280;20816;50.950;11.108;2023-07-22T09:31:16;98362.66;;;22.77;55.08
34586;BME280;20816;50.950;11.108;2023-07-22T09:33:43;98361.34;;;23.29;53.47
34586;BME280;20816;50.950;11.108;2023-07-22T09:36:11;98359.53;;;23.18;54.71
34586;BME280;20816;50.950;11.108;2023-07-22T09:38:38;98361.69;;;23.13;54.65
34586;BME280;20816;50.950;11.108;2023-07-22T09:41:05;98361.06;;;22.50;55.11
34586;BME280;20816;50.950;11.108;2023-07-22T09:43:37;98362.88;;;22.26;56.09
34586;BME280;20816;50.950;11.108;2023-07-22T09:46:11;98358.06;;;21.69;56.50
34586;BME280;20816;50.950;11.108;2023-07-22T09:48:44;98368.53;;;21.72;56.73
34586;BME280;20816;50.950;11.108;2023-07-22T09:51:13;98368.22;;;21.64;57.30
34586;BME280;20816;50.950;11.108;2023-07-22T09:53:45;98368.94;;;21.78;57.80
34586;BME280;20816;50.950;11.108;2023-07-22T09:56:12;98360.34;;;22.48;56.35
34586;BME280;20816;50.950;11.108;2023-07-22T09:58:39;98354.50;;;23.60;55.08
34586;BME280;20816;50.950;11.108;2023-07-22T10:01:07;98342.44;;;24.85;52.38
34586;BME280;20816;50.950;11.108;2023-07-22T10:03:36;98347.00;;;25.27;50.28
34586;BME280;20816;50.950;11.108;2023-07-22T10:06:05;98331.16;;;26.15;49.90
34586;BME280;20816;50.950;11.108;2023-07-22T10:08:34;98336.34;;;26.86;50.07
34586;BME280;20816;50.950;11.108;2023-07-22T10:11:05;98334.22;;;26.99;48.23
34586;BME280;20816;50.950;11.108;2023-07-22T10:13:33;98332.38;;;26.51;48.51
34586;BME280;20816;50.950;11.108;2023-07-22T10:16:00;98329.00;;;26.19;48.21
34586;BME280;20816;50.950;11.108;2023-07-22T10:18:28;98326.50;;;25.87;47.89
34586;BME280;20816;50.950;11.108;2023-07-22T10:20:56;98328.25;;;26.86;47.09
34586;BME280;20816;50.950;11.108;2023-07-22T10:23:25;98323.28;;;26.52;46.25
34586;BME280;20816;50.950;11.108;2023-07-22T10:25:53;98330.19;;;26.36;46.15
34586;BME280;20816;50.950;11.108;2023-07-22T10:28:21;98325.94;;;26.33;48.02
34586;BME280;20816;50.950;11.108;2023-07-22T10:30:48;98316.66;;;26.07;47.49
34586;BME280;20816;50.950;11.108;2023-07-22T10:33:16;98315.25;;;26.22;47.86
34586;BME280;20816;50.950;11.108;2023-07-22T10:35:46;98306.25;;;26.42;46.46
34586;BME280;20816;50.950;11.108;2023-07-22T10:38:27;98316.66;;;26.07;47.13
34586;BME280;20816;50.950;11.108;2023-07-22T10:40:54;98301.06;;;26.20;46.44
34586;BME280;20816;50.950;11.108;2023-07-22T10:43:31;98306.25;;;26.52;45.80
34586;BME280;20816;50.950;11.108;2023-07-22T10:46:06;98295.19;;;27.03;44.39
34586;BME280;20816;50.950;11.108;2023-07-22T10:48:38;98308.81;;;26.82;45.02
34586;BME280;20816;50.950;11.108;2023-07-22T10:51:15;98294.97;;;26.18;45.60
34586;BME280;20816;50.950;11.108;2023-07-22T11:01:30;98296.94;;;24.18;48.92
34586;BME280;20816;50.950;11.108;2023-07-22T11:06:35;98299.22;;;23.57;49.50
34586;BME280;20816;50.950;11.108;2023-07-22T11:09:01;98297.53;;;23.67;49.70
34586;BME280;20816;50.950;11.108;2023-07-22T11:11:40;98298.50;;;23.55;50.14
34586;BME280;20816;50.950;11.108;2023-07-22T11:14:17;98294.72;;;23.46;50.33
34586;BME280;20816;50.950;11.108;2023-07-22T11:16:46;98294.94;;;23.32;50.52
34586;BME280;20816;50.950;11.108;2023-07-22T11:19:14;98286.53;;;23.26;51.06
34586;BME280;20816;50.950;11.108;2023-07-22T11:21:42;98285.06;;;23.21;51.03
34586;BME280;20816;50.950;11.108;2023-07-22T11:24:09;98271.84;;;24.08;49.36
34586;BME280;20816;50.950;11.108;2023-07-22T11:26:37;98278.50;;;24.68;49.24
34586;BME280;20816;50.950;11.108;2023-07-22T11:29:05;98277.56;;;24.58;49.33
34586;BME280;20816;50.950;11.108;2023-07-22T11:31:33;98283.34;;;24.42;49.46
34586;BME280;20816;50.950;11.108;2023-07-22T11:34:00;98286.06;;;23.88;49.86
34586;BME280;20816;50.950;11.108;2023-07-22T11:36:27;98281.41;;;23.23;50.76
34586;BME280;20816;50.950;11.108;2023-07-22T11:39:01;98289.16;;;22.92;51.46
34586;BME280;20816;50.950;11.108;2023-07-22T11:41:29;98280.31;;;23.25;51.43
34586;BME280;20816;50.950;11.108;2023-07-22T11:43:59;98272.41;;;23.68;51.91
34586;BME280;20816;50.950;11.108;2023-07-22T11:46:27;98278.69;;;24.01;51.64
34586;BME280;20816;50.950;11.108;2023-07-22T11:48:55;98267.41;;;24.18;50.10
34586;BME280;20816;50.950;11.108;2023-07-22T11:51:24;98268.91;;;24.11;49.65
34586;BME280;20816;50.950;11.108;2023-07-22T11:53:53;98266.72;;;24.05;50.39
34586;BME280;20816;50.950;11.108;2023-07-22T11:56:25;98256.97;;;24.04;49.37
34586;BME280;20816;50.950;11.108;2023-07-22T11:58:55;98257.19;;;24.12;49.32
34586;BME280;20816;50.950;11.108;2023-07-22T12:01:23;98263.78;;;24.08;50.01
34586;BME280;20816;50.950;11.108;2023-07-22T12:03:55;98260.59;;;24.14;50.31
34586;BME280;20816;50.950;11.108;2023-07-22T12:06:25;98256.75;;;23.85;50.21
34586;BME280;20816;50.950;11.108;2023-07-22T12:08:52;98253.97;;;24.18;49.96
34586;BME280;20816;50.950;11.108;2023-07-22T12:11:23;98251.25;;;24.41;49.78
34586;BME280;20816;50.950;11.108;2023-07-22T12:14:13;98252.78;;;24.75;47.58
34586;BME280;20816;50.950;11.108;2023-07-22T12:16:41;98249.53;;;24.93;48.17
34586;BME280;20816;50.950;11.108;2023-07-22T12:19:09;98236.03;;;25.04;48.19
34586;BME280;20816;50.950;11.108;2023-07-22T12:21:35;98247.63;;;24.63;47.13
34586;BME280;20816;50.950;11.108;2023-07-22T12:24:02;98244.63;;;24.01;47.95
34586;BME280;20816;50.950;11.108;2023-07-22T12:26:30;98236.84;;;24.30;48.34
34586;BME280;20816;50.950;11.108;2023-07-22T12:28:57;98231.13;;;24.98;47.87
34586;BME280;20816;50.950;11.108;2023-07-22T12:31:26;98235.06;;;24.20;48.28
34586;BME280;20816;50.950;11.108;2023-07-22T12:33:53;98230.75;;;24.40;48.55
34586;BME280;20816;50.950;11.108;2023-07-22T12:36:20;98233.34;;;24.51;48.29
34586;BME280;20816;50.950;11.108;2023-07-22T12:38:46;98233.91;;;24.01;48.97
34586;BME280;20816;50.950;11.108;2023-07-22T12:41:13;98230.91;;;23.84;49.82
34586;BME280;20816;50.950;11.108;2023-07-22T12:43:40;98225.28;;;24.19;49.61
34586;BME280;20816;50.950;11.108;2023-07-22T12:46:06;98219.13;;;24.39;49.31
34586;BME280;20816;50.950;11.108;2023-07-22T12:48:33;98220.66;;;24.53;50.03
34586;BME280;20816;50.950;11.108;2023-07-22T12:51:00;98222.09;;;24.57;49.60
34586;BME280;20816;50.950;11.108;2023-07-22T12:53:27;98226.06;;;24.42;49.16
34586;BME280;20816;50.950;11.108;2023-07-22T12:55:58;98228.78;;;24.83;48.64
34586;BME280;20816;50.950;11.108;2023-07-22T12:58:24;98212.88;;;25.22;48.10
34586;BME280;20816;50.950;11.108;2023-07-22T13:00:51;98217.75;;;25.07;48.03